Time;durP1;ratioP1;P1;durP2;ratioP2;P2;SDS_P1;SDS_P2;PMS_P1;PMS_P2;Temp;Humidity;BMP_temperature;BMP_pressure;BME280_temperature;BME280_humidity;BME280_pressure;Samples;Min_cycle;Max_cycle;Signal;HPM_P1;HPM_P2
2021/03/02 00:00:44;;;;;;;6.55;3.90;;;;;;;2.10;100.00;100493.41;1750362;81;21016;-65
2021/03/02 00:03:15;;;;;;;6.47;3.87;;;;;;;2.11;100.00;100495.61;1779467;79;21437;-65
2021/03/02 00:05:47;;;;;;;7.05;3.52;;;;;;;2.12;100.00;100485.68;1774949;80;21007;-65
2021/03/02 00:08:20;;;;;;;6.35;4.15;;;;;;;2.12;100.00;100492.19;1749734;81;21072;-65
2021/03/02 00:10:53;;;;;;;4.97;3.35;;;;;;;2.11;100.00;100495.61;1745428;81;20961;-65
2021/03/02 00:13:26;;;;;;;5.08;3.87;;;;;;;2.11;100.00;100489.10;1716974;81;21009;-65
2021/03/02 00:16:02;;;;;;;5.40;3.35;;;;;;;2.09;100.00;100492.04;1793262;79;20935;-65
2021/03/02 00:18:46;;;;;;;5.05;3.65;;;;;;;2.11;100.00;100489.10;1741231;80;21538;-65
2021/03/02 00:21:27;;;;;;;7.28;3.52;;;;;;;2.14;100.00;100486.65;1772339;79;21561;-65
2021/03/02 00:26:44;;;;;;;4.15;3.17;;;;;;;2.18;100.00;100482.96;1812544;77;22743;-65
2021/03/02 00:29:16;;;;;;;5.92;3.55;;;;;;;2.12;100.00;100480.48;1785459;79;20930;-65
2021/03/02 00:31:48;;;;;;;4.10;3.12;;;;;;;2.11;100.00;100479.99;1766114;79;21218;-65
2021/03/02 00:34:21;;;;;;;5.42;3.30;;;;;;;2.11;100.00;100481.30;1810144;78;20946;-65
2021/03/02 00:36:55;;;;;;;5.00;3.37;;;;;;;2.12;100.00;100473.97;1802397;78;20936;-65
2021/03/02 00:39:25;;;;;;;5.53;3.62;;;;;;;2.12;100.00;100472.25;1785170;80;20998;-65
2021/03/02 00:41:58;;;;;;;5.33;3.40;;;;;;;2.12;100.00;100476.16;1787357;79;21490;-65
2021/03/02 00:44:28;;;;;;;3.98;3.15;;;;;;;2.11;100.00;100468.28;1785357;79;21380;-66
2021/03/02 00:46:58;;;;;;;3.20;2.85;;;;;;;2.11;100.00;100470.87;1787341;79;20956;-65
2021/03/02 00:49:37;;;;;;;4.30;3.15;;;;;;;2.11;100.00;100469.58;1797453;79;21008;-65
2021/03/02 00:52:09;;;;;;;3.40;2.80;;;;;;;2.10;100.00;100459.58;1791372;79;21429;-63
2021/03/02 00:54:39;;;;;;;6.00;3.40;;;;;;;2.10;100.00;100454.37;1803993;79;20995;-63
2021/03/02 00:57:09;;;;;;;3.80;2.80;;;;;;;2.11;100.00;100461.36;1765722;79;22348;-66
2021/03/02 00:59:42;;;;;;;5.72;3.05;;;;;;;2.11;100.00;100446.16;1783209;79;20982;-63
2021/03/02 01:02:13;;;;;;;4.92;2.65;;;;;;;2.11;100.00;100440.95;1783177;79;20948;-65
2021/03/02 01:04:45;;;;;;;4.12;2.67;;;;;;;2.07;100.00;100442.92;1760670;80;21071;-65
2021/03/02 01:07:17;;;;;;;4.15;2.98;;;;;;;2.06;100.00;100434.22;1735802;80;21508;-66
2021/03/02 01:09:51;;;;;;;7.55;3.30;;;;;;;2.05;100.00;100435.04;1744454;80;22316;-66
2021/03/02 01:12:26;;;;;;;4.70;3.37;;;;;;;2.06;100.00;100426.41;1750486;81;21517;-64
2021/03/02 01:15:00;;;;;;;7.95;4.55;;;;;;;2.06;100.00;100423.81;1730137;80;21074;-64
2021/03/02 01:17:30;;;;;;;10.05;6.95;;;;;;;2.06;100.00;100421.62;1754881;81;20891;-63
2021/03/02 01:20:00;;;;;;;15.58;8.38;;;;;;;2.06;100.00;100426.41;1737162;81;21460;-63
2021/03/02 01:22:33;;;;;;;7.80;7.00;;;;;;;2.08;100.00;100418.27;1737230;81;21207;-64
2021/03/02 01:25:10;;;;;;;5.50;4.65;;;;;;;2.08;100.00;100417.38;1733372;81;20998;-64
2021/03/02 01:27:40;;;;;;;5.15;3.65;;;;;;;2.10;100.00;100418.34;1727288;81;21014;-63
2021/03/02 01:30:18;;;;;;;4.00;3.20;;;;;;;2.09;100.00;100416.15;1766319;80;21094;-64
2021/03/02 01:32:46;;;;;;;5.05;3.47;;;;;;;2.06;100.00;100410.80;1776059;79;20972;-66
2021/03/02 01:35:21;;;;;;;;;;;;;;;2.04;100.00;100403.33;1779182;79;21424;-64
2021/03/02 01:37:52;;;;;;;3.95;3.30;;;;;;;2.01;100.00;100400.58;1790824;79;25199;-65
2021/03/02 01:40:21;;;;;;;4.80;3.55;;;;;;;1.99;100.00;100399.61;1774141;79;20958;-66
2021/03/02 01:42:53;;;;;;;5.20;3.95;;;;;;;2.00;100.00;100399.20;1774616;79;20939;-67
2021/03/02 01:45:23;;;;;;;7.17;4.78;;;;;;;2.02;100.00;100396.27;1774391;79;20939;-65
2021/03/02 01:47:54;;;;;;;6.25;4.45;;;;;;;2.01;100.00;100395.38;1796429;79;21346;-65
2021/03/02 01:50:25;;;;;;;6.45;4.55;;;;;;;2.00;100.00;100394.00;1774442;79;20943;-66
2021/03/02 01:52:56;;;;;;;6.45;4.60;;;;;;;1.99;100.00;100386.60;1774108;80;21467;-66
2021/03/02 01:55:32;;;;;;;7.20;4.50;;;;;;;1.99;100.00;100378.80;1801892;79;20950;-65
2021/03/02 01:58:03;;;;;;;6.47;4.30;;;;;;;1.99;100.00;100374.00;1797499;79;21449;-65
2021/03/02 02:00:37;;;;;;;6.10;4.20;;;;;;;2.00;100.00;100371.47;1784449;79;21369;-65
2021/03/02 02:03:37;;;;;;;5.47;3.85;;;;;;;1.99;100.00;100369.69;1784242;79;20943;-65
2021/03/02 02:06:47;;;;;;;6.62;3.90;;;;;;;1.97;100.00;100375.64;1774081;80;21567;-65
2021/03/02 02:10:01;;;;;;;9.08;3.50;;;;;;;1.96;100.00;100375.16;1777073;79;21011;-64
2021/03/02 02:12:48;;;;;;;4.78;3.33;;;;;;;1.94;100.00;100369.88;1791820;79;20921;-65
2021/03/02 02:15:27;;;;;;;3.55;2.92;;;;;;;1.97;100.00;100370.02;1798137;79;21518;-65
2021/03/02 02:18:12;;;;;;;4.12;2.98;;;;;;;1.99;100.00;100370.98;1763873;80;20959;-66
2021/03/02 02:21:11;;;;;;;4.25;3.08;;;;;;;1.98;100.00;100367.02;1796311;79;21534;-66
2021/03/02 02:24:15;;;;;;;5.70;3.53;;;;;;;1.98;100.00;100368.31;1781974;79;20986;-66
2021/03/02 02:26:58;;;;;;;4.10;3.30;;;;;;;1.98;100.00;100357.91;1785032;79;21085;-65
2021/03/02 02:29:31;;;;;;;4.20;3.25;;;;;;;1.94;100.00;100352.08;1784186;79;21195;-64
2021/03/02 02:32:02;;;;;;;4.78;3.02;;;;;;;1.93;100.00;100355.09;1786099;79;21510;-64
2021/03/02 02:34:37;;;;;;;5.35;3.05;;;;;;;1.96;100.00;100352.63;1776485;79;21488;-65
2021/03/02 02:37:10;;;;;;;4.60;3.12;;;;;;;1.98;100.00;100350.09;1753252;80;21469;-65
2021/03/02 02:39:40;;;;;;;5.72;2.87;;;;;;;1.95;100.00;100343.04;1774396;79;21485;-67
2021/03/02 02:44:49;;;;;;;4.00;3.00;;;;;;;1.94;100.00;100337.35;1874150;75;22608;-65
2021/03/02 02:47:23;;;;;;;6.67;3.40;;;;;;;1.91;100.00;100336.32;1827193;77;20985;-65
2021/03/02 02:49:53;;;;;;;4.75;3.25;;;;;;;1.91;100.00;100341.52;1760296;80;22358;-65
2021/03/02 02:52:24;;;;;;;4.50;3.08;;;;;;;1.90;100.00;100335.43;1769033;79;20959;-65
2021/03/02 02:55:01;;;;;;;4.58;3.00;;;;;;;1.90;100.00;100338.03;1768447;79;20994;-65
2021/03/02 02:57:34;;;;;;;4.58;3.20;;;;;;;1.91;100.00;100342.41;1715693;81;21609;-66
2021/03/02 03:00:05;;;;;;;5.12;3.55;;;;;;;1.91;100.00;100329.81;1740764;81;20996;-64
2021/03/02 03:02:36;;;;;;;;;;;;;;;1.89;100.00;100330.63;1765079;81;21201;-64
2021/03/02 03:05:16;;;;;;;4.92;3.50;;;;;;;1.91;100.00;100329.81;1775801;80;20135;-65
2021/03/02 03:08:05;;;;;;;6.65;4.47;;;;;;;1.91;100.00;100328.52;1779713;79;21545;-65
2021/03/02 03:10:36;;;;;;;6.80;5.08;;;;;;;1.87;100.00;100315.73;1776040;79;21020;-68
2021/03/02 03:13:08;;;;;;;5.53;4.45;;;;;;;1.87;100.00;100321.83;1775921;80;20933;-65
2021/03/02 03:15:41;;;;;;;6.58;5.12;;;;;;;1.86;100.00;100315.25;1777986;79;21140;-65
2021/03/02 03:18:11;;;;;;;6.67;5.15;;;;;;;1.88;100.00;100314.50;1761754;80;21477;-65
2021/03/02 03:20:43;;;;;;;6.50;5.05;;;;;;;1.89;100.00;100309.82;1744713;80;21618;-64
2021/03/02 03:23:17;;;;;;;6.37;4.95;;;;;;;1.89;100.00;100294.20;1790986;80;21452;-64
2021/03/02 03:25:48;;;;;;;7.03;4.37;;;;;;;1.91;100.00;100302.08;1746501;81;20916;-64
2021/03/02 03:28:22;;;;;;;7.15;4.20;;;;;;;1.92;100.00;100288.66;1731902;81;21102;-64
2021/03/02 03:30:51;;;;;;;6.50;4.12;;;;;;;1.94;100.00;100298.73;1765846;79;21143;-64
2021/03/02 03:33:22;;;;;;;7.30;3.70;;;;;;;1.94;100.00;100285.31;1776732;79;21012;-64
2021/03/02 03:35:58;;;;;;;6.35;4.05;;;;;;;1.96;100.00;100283.67;1776747;79;21055;-63
2021/03/02 03:38:28;;;;;;;4.97;4.10;;;;;;;1.96;100.00;100284.97;1786820;80;21476;-64
2021/03/02 03:41:02;;;;;;;6.65;4.05;;;;;;;1.96;100.00;100281.48;1790926;80;20910;-64
2021/03/02 03:43:33;;;;;;;7.47;4.10;;;;;;;1.99;100.00;100289.02;1797390;79;24070;-66
2021/03/02 03:46:03;;;;;;;34.95;6.50;;;;;;;2.00;100.00;100292.51;1806503;79;20913;-66
2021/03/02 03:48:33;;;;;;;22.73;7.40;;;;;;;1.99;100.00;100282.52;1806109;79;21044;-64
2021/03/02 03:51:04;;;;;;;15.08;9.13;;;;;;;2.02;100.00;100283.95;1808525;79;21477;-65
2021/03/02 03:53:35;;;;;;;22.90;9.13;;;;;;;2.05;100.00;100290.59;1808796;79;21467;-65
2021/03/02 03:56:06;;;;;;;10.37;6.50;;;;;;;2.06;100.00;100286.28;1763284;80;20941;-66
2021/03/02 03:58:36;;;;;;;7.60;4.80;;;;;;;2.06;100.00;100287.17;1771584;79;21134;-64
2021/03/02 04:01:07;;;;;;;6.10;4.80;;;;;;;2.06;100.00;100283.68;1805845;79;21013;-64
2021/03/02 04:03:38;;;;;;;7.10;4.35;;;;;;;2.08;100.00;100282.04;1775933;79;20916;-63
2021/03/02 04:06:09;;;;;;;7.20;4.40;;;;;;;2.09;100.00;100284.71;1747474;80;21415;-64
2021/03/02 04:08:39;;;;;;;6.87;4.35;;;;;;;2.09;100.00;100279.91;1777909;79;21473;-64
2021/03/02 04:11:09;;;;;;;8.90;4.58;;;;;;;2.08;100.00;100276.83;1778041;79;21047;-65
2021/03/02 04:13:39;;;;;;;10.78;5.42;;;;;;;2.08;100.00;100274.23;1775785;80;21451;-66
2021/03/02 04:16:10;;;;;;;6.45;4.87;;;;;;;2.08;100.00;100272.92;1773491;79;20997;-67
2021/03/02 04:18:40;;;;;;;7.25;4.45;;;;;;;2.07;100.00;100275.05;1786853;78;21151;-66
2021/03/02 04:21:10;;;;;;;8.53;5.15;;;;;;;2.05;100.00;100268.48;1805760;78;20997;-67
2021/03/02 04:23:42;;;;;;;8.33;4.87;;;;;;;2.03;100.00;100267.52;1767312;79;21057;-66
2021/03/02 04:26:12;;;;;;;9.58;5.15;;;;;;;2.05;100.00;100262.38;1808526;78;21163;-66
2021/03/02 04:28:42;;;;;;;7.90;5.17;;;;;;;2.05;100.00;100254.16;1808484;79;21455;-66
2021/03/02 04:31:12;;;;;;;9.13;4.60;;;;;;;2.07;100.00;100256.42;1806176;78;22238;-67
2021/03/02 04:33:47;;;;;;;7.67;4.35;;;;;;;2.06;100.00;100252.04;1808401;79;20949;-66
2021/03/02 04:36:18;;;;;;;10.13;5.55;;;;;;;2.05;100.00;100249.37;1801663;78;20997;-66
2021/03/02 04:38:49;;;;;;;8.28;5.65;;;;;;;2.03;100.00;100248.00;1789382;79;21489;-65
2021/03/02 04:41:19;;;;;;;8.75;5.62;;;;;;;2.00;100.00;100241.35;1778460;79;20889;-67
2021/03/02 04:43:48;;;;;;;7.50;5.65;;;;;;;1.96;100.00;100245.94;1769194;79;21412;-66
2021/03/02 04:46:19;;;;;;;7.10;5.67;;;;;;;1.96;100.00;100247.66;1745110;80;21503;-66
2021/03/02 04:48:48;;;;;;;8.65;6.00;;;;;;;1.96;100.00;100240.73;1785379;80;20953;-66
2021/03/02 04:51:18;;;;;;;7.05;5.58;;;;;;;1.97;100.00;100236.42;1783065;80;20916;-66
2021/03/02 04:53:48;;;;;;;27.75;8.38;;;;;;;1.98;100.00;100243.00;1754359;81;20931;-64
2021/03/02 04:56:18;;;;;;;10.65;7.70;;;;;;;1.97;100.00;100237.72;1754372;81;21275;-63
2021/03/02 04:58:50;;;;;;;15.40;9.18;;;;;;;1.96;100.00;100226.42;1754701;80;21499;-63
2021/03/02 05:01:20;;;;;;;18.45;10.70;;;;;;;1.96;100.00;100230.33;1785660;80;21126;-63
2021/03/02 05:03:49;;;;;;;16.00;11.00;;;;;;;1.96;100.00;100223.83;1783041;79;21075;-64
2021/03/02 05:06:18;;;;;;;16.45;10.90;;;;;;;1.98;100.00;100224.78;1785271;79;20923;-64
2021/03/02 05:08:48;;;;;;;11.53;8.55;;;;;;;1.98;100.00;100219.98;1766394;80;22113;-64
2021/03/02 05:11:17;;;;;;;10.60;8.08;;;;;;;1.95;100.00;100219.44;1785490;80;20964;-60
2021/03/02 05:13:47;;;;;;;14.20;10.03;;;;;;;1.93;100.00;100224.09;1767134;79;20955;-64
2021/03/02 05:16:16;;;;;;;13.20;9.78;;;;;;;1.92;100.00;100215.40;1754485;81;21078;-64
2021/03/02 05:18:46;;;;;;;10.28;7.85;;;;;;;1.93;100.00;100213.28;1754489;81;20955;-63
2021/03/02 05:21:15;;;;;;;7.95;6.78;;;;;;;1.96;100.00;100208.62;1760357;80;21280;-63
2021/03/02 05:23:44;;;;;;;13.98;8.08;;;;;;;1.97;100.00;100209.99;1785186;79;20924;-65
2021/03/02 05:26:13;;;;;;;11.03;7.47;;;;;;;1.99;100.00;100213.55;1784609;80;20952;-64
2021/03/02 05:28:42;;;;;;;9.70;7.37;;;;;;;1.99;100.00;100213.55;1785551;80;20960;-63
2021/03/02 05:31:12;;;;;;;9.48;7.40;;;;;;;2.00;100.00;100213.14;1785424;80;20912;-63
2021/03/02 05:33:40;;;;;;;9.43;7.20;;;;;;;2.01;100.00;100207.11;1785572;79;21490;-64
2021/03/02 05:36:10;;;;;;;8.60;6.87;;;;;;;1.99;100.00;100204.86;1773321;80;20971;-64
2021/03/02 05:38:39;;;;;;;7.92;6.78;;;;;;;2.00;100.00;100200.13;1778952;79;20958;-64
2021/03/02 05:41:09;;;;;;;22.10;13.72;;;;;;;2.03;100.00;100197.66;1776117;80;20932;-65
2021/03/02 05:43:42;;;;;;;14.93;11.18;;;;;;;2.05;100.00;100197.31;1761577;80;21538;-64
2021/03/02 05:46:12;;;;;;;12.23;9.40;;;;;;;2.05;100.00;100199.92;1751251;80;21295;-65
2021/03/02 05:48:44;;;;;;;10.88;9.60;;;;;;;2.06;100.00;100211.70;1757990;80;20972;-58
2021/03/02 05:51:13;;;;;;;9.33;7.08;;;;;;;2.07;100.00;100211.29;1768547;80;20955;-65
2021/03/02 05:53:41;;;;;;;7.60;6.37;;;;;;;2.09;100.00;100219.64;1757374;81;21510;-64
2021/03/02 05:56:10;;;;;;;8.70;6.12;;;;;;;2.09;100.00;100220.05;1770291;80;20899;-63
2021/03/02 05:58:40;;;;;;;9.10;6.75;;;;;;;2.10;100.00;100220.53;1775190;78;21946;-64
2021/03/02 06:01:09;;;;;;;8.78;6.67;;;;;;;2.12;100.00;100218.48;1757657;79;20984;-64
2021/03/02 06:03:39;;;;;;;7.00;5.85;;;;;;;2.13;100.00;100203.75;1832494;78;21077;-64
2021/03/02 06:06:08;;;;;;;6.65;5.40;;;;;;;2.15;100.00;100199.09;1838330;77;20959;-64
2021/03/02 06:08:37;;;;;;;8.60;6.08;;;;;;;2.15;100.00;100196.48;1838324;77;21033;-65
2021/03/02 06:11:31;;;;;;;7.62;5.97;;;;;;;2.16;100.00;100193.47;1838408;78;22270;-66
2021/03/02 06:14:23;;;;;;;9.15;6.55;;;;;;;2.17;100.00;100200.46;1811144;77;20931;-64
2021/03/02 06:16:54;;;;;;;11.22;6.75;;;;;;;2.18;100.00;100191.83;1805297;78;20998;-64
2021/03/02 06:19:47;;;;;;;8.15;6.03;;;;;;;2.19;100.00;100200.11;1805210;78;20887;-65
2021/03/02 06:22:39;;;;;;;11.57;7.00;;;;;;;2.17;100.00;100192.23;1805470;78;21480;-64
2021/03/02 06:25:29;;;;;;;8.50;6.97;;;;;;;2.17;100.00;100188.33;1805395;78;22253;-64
2021/03/02 06:27:59;;;;;;;15.30;9.50;;;;;;;2.18;100.00;100200.94;1805374;78;20938;-64
2021/03/02 06:30:28;;;;;;;16.05;13.10;;;;;;;2.20;100.00;100194.09;1804786;78;20966;-64
2021/03/02 06:32:58;;;;;;;10.85;9.33;;;;;;;2.23;100.00;100191.61;1803894;78;21523;-67
2021/03/02 06:35:35;;;;;;;11.10;8.33;;;;;;;2.26;100.00;100187.84;1804527;78;21508;-66
2021/03/02 06:38:04;;;;;;;9.03;7.45;;;;;;;2.31;100.00;100179.81;1804709;78;21370;-66
2021/03/02 06:40:48;;;;;;;10.65;7.40;;;;;;;2.35;100.00;100179.13;1805367;78;20911;-66
2021/03/02 06:43:38;;;;;;;11.38;7.80;;;;;;;2.38;100.00;100183.19;1805498;78;21501;-64
2021/03/02 06:46:08;;;;;;;8.28;6.97;;;;;;;2.38;100.00;100167.57;1788120;79;20950;-64
2021/03/02 06:48:57;;;;;;;13.85;8.73;;;;;;;2.38;100.00;100169.28;1786898;79;21476;-66
2021/03/02 06:51:31;;;;;;;13.00;8.43;;;;;;;2.37;100.00;100160.58;1787012;79;22178;-65
2021/03/02 06:54:17;;;;;;;10.55;7.33;;;;;;;2.36;100.00;100160.07;1786829;79;20930;-64
2021/03/02 06:57:00;;;;;;;11.35;7.33;;;;;;;2.36;100.00;100157.47;1786922;79;20985;-66
2021/03/02 06:59:29;;;;;;;12.03;8.75;;;;;;;2.39;100.00;100150.23;1786219;79;20938;-65
2021/03/02 07:01:58;;;;;;;11.83;8.75;;;;;;;2.40;100.00;100143.79;1786892;79;21484;-64
2021/03/02 07:04:29;;;;;;;12.50;9.13;;;;;;;2.41;100.00;100150.77;1786885;79;21230;-65
2021/03/02 07:06:58;;;;;;;20.52;8.93;;;;;;;2.41;100.00;100142.08;1786962;79;21056;-64
2021/03/02 07:09:27;;;;;;;11.45;8.50;;;;;;;2.38;100.00;100144.14;1786892;79;20942;-65
2021/03/02 07:11:57;;;;;;;10.10;7.90;;;;;;;2.36;100.00;100140.55;1786857;79;21072;-65
2021/03/02 07:14:27;;;;;;;11.53;8.08;;;;;;;2.37;100.00;100141.47;1786890;79;20945;-64
2021/03/02 07:16:56;;;;;;;10.60;7.22;;;;;;;2.39;100.00;100134.61;1786904;79;21195;-65
2021/03/02 07:19:25;;;;;;;19.05;13.38;;;;;;;2.40;100.00;100133.38;1786791;79;20962;-64
2021/03/02 07:21:55;;;;;;;11.73;10.45;;;;;;;2.40;100.00;100121.66;1786899;79;21080;-65
2021/03/02 07:24:27;;;;;;;11.35;9.25;;;;;;;2.41;100.00;100113.02;1786835;79;20942;-66
2021/03/02 07:26:57;;;;;;;11.88;8.95;;;;;;;2.41;100.00;100119.94;1787028;79;21072;-64
2021/03/02 07:29:26;;;;;;;12.78;8.40;;;;;;;2.40;100.00;100116.45;1786861;79;21197;-65
2021/03/02 07:31:55;;;;;;;10.15;8.30;;;;;;;2.41;100.00;100114.31;1787028;79;21087;-66
2021/03/02 07:34:24;;;;;;;12.60;9.98;;;;;;;2.42;100.00;100123.91;1787048;79;20946;-64
2021/03/02 07:36:53;;;;;;;12.20;8.80;;;;;;;2.45;100.00;100129.24;1787116;79;21056;-64
2021/03/02 07:39:27;;;;;;;11.88;8.45;;;;;;;2.48;100.00;100128.07;1787083;79;21499;-66
2021/03/02 07:41:53;;;;;;;12.68;9.85;;;;;;;2.49;100.00;100120.73;1786966;79;21142;-66
2021/03/02 07:44:23;;;;;;;13.03;9.55;;;;;;;2.54;100.00;100119.63;1788054;78;20993;-66
2021/03/02 07:46:56;;;;;;;15.75;10.55;;;;;;;2.54;100.00;100119.63;1805560;78;20998;-66
2021/03/02 07:49:30;;;;;;;12.95;10.00;;;;;;;2.53;100.00;100115.23;1805546;79;20895;-66
2021/03/02 07:52:12;;;;;;;17.17;10.35;;;;;;;2.55;100.00;100116.60;1805577;79;20930;-65
2021/03/02 07:54:42;;;;;;;13.25;9.05;;;;;;;2.56;100.00;100110.56;1805559;78;21394;-66
2021/03/02 07:57:22;;;;;;;11.12;8.98;;;;;;;2.58;100.00;100111.52;1805564;78;21485;-66
2021/03/02 08:00:20;;;;;;;13.62;8.90;;;;;;;2.63;100.00;100115.20;1805524;79;21006;-64
2021/03/02 08:03:20;;;;;;;12.37;9.80;;;;;;;2.67;100.00;100108.88;1805602;78;21064;-65
2021/03/02 08:05:49;;;;;;;17.82;11.97;;;;;;;2.76;100.00;100116.16;1803566;78;20943;-64
2021/03/02 08:08:28;;;;;;;21.93;13.13;;;;;;;2.79;100.00;100111.08;1805530;78;21516;-64
2021/03/02 08:11:04;;;;;;;15.65;11.50;;;;;;;2.80;100.00;100108.53;1805483;79;20938;-64
2021/03/02 08:13:43;;;;;;;13.70;10.60;;;;;;;2.78;100.00;100107.58;1802271;78;21508;-64
2021/03/02 12:59:09;;;;;;;27.35;21.00;;;;;;;7.49;100.00;99804.82;1853503;77;22843;-61
2021/03/02 13:01:40;;;;;;;30.23;21.93;;;;;;;7.77;100.00;99805.29;1809779;78;20969;-64
2021/03/02 13:04:11;;;;;;;27.85;20.12;;;;;;;7.94;100.00;99797.23;1790736;78;21434;-62
2021/03/02 13:06:42;;;;;;;29.50;21.50;;;;;;;8.02;100.00;99793.40;1804097;77;21065;-62
2021/03/02 13:09:11;;;;;;;28.12;20.85;;;;;;;8.04;100.00;99795.22;1792733;78;21000;-62
2021/03/02 13:11:46;;;;;;;31.65;22.15;;;;;;;8.08;100.00;99798.34;1737966;80;20993;-62
2021/03/02 13:14:17;;;;;;;29.65;21.02;;;;;;;8.17;100.00;99791.02;1783008;79;21060;-62
2021/03/02 13:16:46;;;;;;;31.33;23.42;;;;;;;8.25;100.00;99785.86;1780539;79;21140;-63
2021/03/02 13:19:16;;;;;;;37.53;26.90;;;;;;;8.34;100.00;99768.92;1809353;78;20878;-65
2021/03/02 13:21:47;;;;;;;31.05;21.45;;;;;;;8.44;100.00;99771.69;1793089;78;21597;-62
2021/03/02 13:24:17;;;;;;;31.77;23.07;;;;;;;8.47;100.00;99770.41;1807384;78;21491;-62
2021/03/02 13:26:47;;;;;;;32.80;22.70;;;;;;;8.49;100.00;99752.02;1797712;78;21052;-62
2021/03/02 13:29:18;;;;;;;29.82;21.50;;;;;;;8.53;100.00;99742.46;1805046;78;22245;-62
2021/03/02 13:31:49;;;;;;;32.23;23.70;;;;;;;8.62;100.00;99741.25;1814251;77;20904;-62
2021/03/02 13:34:20;;;;;;;31.33;22.02;;;;;;;8.62;100.00;99736.87;1802603;78;21072;-62
2021/03/02 13:36:51;;;;;;;30.52;21.48;;;;;;;8.57;100.00;99731.98;1808387;78;21602;-63
2021/03/02 13:39:22;;;;;;;32.67;23.25;;;;;;;8.48;99.55;99718.71;1765788;79;21216;-63
2021/03/02 13:41:51;;;;;;;30.62;23.18;;;;;;;8.51;99.56;99724.00;1775975;79;21248;-63
2021/03/02 13:44:22;;;;;;;29.82;21.55;;;;;;;8.52;99.16;99717.91;1774364;79;21287;-62
2021/03/02 13:46:52;;;;;;;30.17;21.73;;;;;;;8.53;99.08;99720.99;1806494;78;21632;-63
2021/03/02 13:49:23;;;;;;;32.40;21.33;;;;;;;8.54;98.77;99735.02;1780656;79;21131;-62
2021/03/02 13:51:54;;;;;;;32.28;22.95;;;;;;;8.49;98.24;99741.08;1775856;79;21137;-64
2021/03/02 13:54:23;;;;;;;28.35;20.48;;;;;;;8.44;97.97;99740.14;1780823;79;21205;-60
2021/03/02 13:56:53;;;;;;;28.05;21.30;;;;;;;8.42;98.28;99737.92;1781676;79;21633;-62
2021/03/02 13:59:23;;;;;;;31.15;21.85;;;;;;;8.37;98.29;99734.36;1778003;79;21148;-62
2021/03/02 14:01:52;;;;;;;30.62;22.35;;;;;;;8.33;98.57;99738.22;1781890;79;21278;-63
2021/03/02 14:04:22;;;;;;;32.70;24.18;;;;;;;8.35;98.53;99717.69;1788518;79;21669;-63
2021/03/02 14:06:51;;;;;;;33.40;23.73;;;;;;;8.39;98.29;99713.34;1781800;79;21202;-62
2021/03/02 14:09:21;;;;;;;30.25;22.32;;;;;;;8.36;97.61;99706.73;1794963;79;21021;-62
2021/03/02 14:11:51;;;;;;;35.03;20.95;;;;;;;8.25;96.86;99719.73;1781863;79;20977;-62
2021/03/02 14:14:20;;;;;;;31.23;21.52;;;;;;;8.15;96.97;99714.78;1795122;79;21620;-62
2021/03/02 14:16:50;;;;;;;27.93;20.72;;;;;;;8.07;97.13;99709.87;1786450;79;21028;-62
2021/03/02 14:19:20;;;;;;;32.73;22.40;;;;;;;8.01;97.06;99705.81;1775438;79;21378;-62
2021/03/02 14:21:49;;;;;;;32.70;22.58;;;;;;;7.95;96.88;99699.60;1781767;79;21467;-62
2021/03/02 14:24:19;;;;;;;32.05;22.52;;;;;;;7.90;97.30;99692.55;1753592;79;20932;-63
2021/03/02 14:26:49;;;;;;;31.25;22.27;;;;;;;7.85;97.39;99677.59;1782391;79;21239;-63
2021/03/02 14:29:18;;;;;;;31.60;22.95;;;;;;;7.78;97.84;99682.31;1792586;78;21033;-63
2021/03/02 14:31:48;;;;;;;36.88;22.20;;;;;;;7.68;98.15;99673.42;1788777;79;21274;-63
2021/03/02 14:34:18;;;;;;;38.15;25.27;;;;;;;7.58;98.82;99674.16;1786216;79;21467;-63
2021/03/02 14:36:48;;;;;;;32.35;22.40;;;;;;;7.57;99.25;99671.08;1782619;79;20941;-62
2021/03/02 14:39:18;;;;;;;30.97;21.70;;;;;;;7.51;99.53;99669.22;1781994;79;21026;-63
2021/03/02 14:41:51;;;;;;;32.85;22.98;;;;;;;7.46;100.00;99674.83;1785893;79;21062;-62
2021/03/02 14:44:31;;;;;;;31.02;21.77;;;;;;;7.42;100.00;99679.59;1767754;79;21208;-63
2021/03/02 14:47:16;;;;;;;33.70;21.80;;;;;;;7.39;100.00;99672.98;1758713;80;20962;-63
2021/03/02 14:49:57;;;;;;;33.30;22.87;;;;;;;7.30;100.00;99666.28;1760007;80;21050;-62
2021/03/02 14:52:26;;;;;;;36.58;23.83;;;;;;;7.23;100.00;99655.24;1761751;80;21597;-62
2021/03/02 14:54:57;;;;;;;34.75;23.07;;;;;;;7.21;100.00;99652.59;1766567;80;21109;-62
2021/03/02 14:57:26;;;;;;;32.48;22.30;;;;;;;7.18;100.00;99655.17;1784341;78;21255;-62
2021/03/02 14:59:57;;;;;;;33.25;22.35;;;;;;;7.15;100.00;99651.19;1754654;80;21626;-62
2021/03/02 15:02:28;;;;;;;30.15;21.27;;;;;;;7.11;100.00;99650.69;1750919;80;21139;-62
2021/03/02 15:04:58;;;;;;;31.73;21.33;;;;;;;7.09;100.00;99647.55;1757280;80;21570;-62
2021/03/02 15:07:28;;;;;;;29.90;20.72;;;;;;;7.00;100.00;99651.34;1753269;80;21578;-61
2021/03/02 15:09:58;;;;;;;30.20;21.23;;;;;;;6.91;100.00;99656.02;1757923;80;21366;-67
2021/03/02 15:12:28;;;;;;;30.55;19.35;;;;;;;6.85;100.00;99668.59;1765759;79;21574;-61
2021/03/02 15:14:57;;;;;;;42.17;19.82;;;;;;;6.79;100.00;99673.73;1780762;79;21239;-62
2021/03/02 15:17:27;;;;;;;28.12;19.32;;;;;;;6.67;100.00;99679.20;1758668;80;21794;-63
2021/03/02 15:19:57;;;;;;;31.52;19.12;;;;;;;6.61;100.00;99684.75;1777774;79;20941;-62
2021/03/02 15:22:26;;;;;;;27.62;18.27;;;;;;;6.56;100.00;99680.28;1780468;79;21195;-62
2021/03/02 15:24:56;;;;;;;27.45;19.67;;;;;;;6.53;100.00;99680.23;1780073;79;21480;-62
2021/03/02 15:27:25;;;;;;;39.40;20.52;;;;;;;6.44;100.00;99684.88;1780621;79;21262;-62
2021/03/02 15:29:55;;;;;;;34.88;21.95;;;;;;;6.38;100.00;99690.00;1776502;79;21101;-59
2021/03/02 15:32:25;;;;;;;34.13;22.93;;;;;;;6.31;100.00;99690.73;1764958;79;21623;-62
2021/03/02 15:34:55;;;;;;;31.02;21.48;;;;;;;6.21;100.00;99698.84;1777441;79;21204;-62
2021/03/02 15:37:24;;;;;;;29.63;20.30;;;;;;;6.12;100.00;99694.70;1763011;79;20953;-61
2021/03/02 15:39:53;;;;;;;33.05;22.42;;;;;;;6.04;100.00;99700.20;1772140;79;21155;-62
2021/03/02 15:42:23;;;;;;;28.55;20.35;;;;;;;5.96;100.00;99693.92;1781948;78;20930;-63
2021/03/02 15:44:52;;;;;;;31.85;21.42;;;;;;;5.84;100.00;99703.69;1775527;79;21076;-64
2021/03/02 15:47:22;;;;;;;29.85;20.52;;;;;;;5.80;100.00;99712.75;1780395;79;21360;-63
2021/03/02 15:49:52;;;;;;;29.18;18.98;;;;;;;5.68;100.00;99714.67;1783307;79;21018;-63
2021/03/02 15:52:22;;;;;;;31.97;20.25;;;;;;;5.60;100.00;99714.89;1769001;79;21164;-63
2021/03/02 15:54:52;;;;;;;28.77;18.80;;;;;;;5.50;100.00;99713.80;1775429;79;21061;-63
2021/03/02 15:57:22;;;;;;;33.05;21.30;;;;;;;5.43;100.00;99712.31;1768686;80;21049;-65
2021/03/02 15:59:51;;;;;;;29.25;18.95;;;;;;;5.40;100.00;99718.36;1801443;78;22394;-65
2021/03/02 16:02:33;;;;;;;27.62;18.67;;;;;;;5.37;100.00;99715.67;1784217;79;21501;-63
2021/03/02 16:05:05;;;;;;;31.12;20.50;;;;;;;5.30;100.00;99721.19;1752365;79;21112;-63
2021/03/02 16:07:50;;;;;;;30.62;20.25;;;;;;;5.29;100.00;99722.45;1791122;79;21042;-64
2021/03/02 16:10:19;;;;;;;32.15;19.20;;;;;;;5.25;100.00;99722.81;1783627;79;21459;-63
2021/03/02 16:12:53;;;;;;;30.68;20.70;;;;;;;5.18;100.00;99721.28;1792278;79;21199;-64
2021/03/02 16:15:23;;;;;;;36.17;23.25;;;;;;;5.11;100.00;99728.52;1794487;78;21098;-64
2021/03/02 16:17:53;;;;;;;33.28;21.42;;;;;;;5.00;100.00;99738.28;1789662;79;21099;-63
2021/03/02 16:20:23;;;;;;;32.70;20.45;;;;;;;4.93;100.00;99731.13;1784646;79;21618;-64
2021/03/02 16:23:06;;;;;;;32.08;19.50;;;;;;;4.83;100.00;99733.47;1766754;79;21015;-65
2021/03/02 16:25:36;;;;;;;31.25;20.10;;;;;;;4.79;100.00;99734.23;1772194;79;21203;-64
2021/03/02 16:28:06;;;;;;;32.45;20.65;;;;;;;4.76;100.00;99726.32;1776721;79;21184;-65
2021/03/02 16:30:36;;;;;;;31.65;20.35;;;;;;;4.73;100.00;99732.35;1747365;80;20994;-65
2021/03/02 16:33:07;;;;;;;31.50;20.12;;;;;;;4.72;100.00;99734.47;1768103;79;21147;-65
2021/03/02 16:35:39;;;;;;;31.95;20.72;;;;;;;4.72;100.00;99740.58;1768951;79;21017;-65